This is the latest recevied weather packets stored in our database for station/object AA6HF. If no packets are shown the sender has not sent any weather packets the latest 10 day(s).
| Time | Temp. | Humidity | Pressure | Rain* | Wind** | Luminosity | Snow |
|---|---|---|---|---|---|---|---|
| 1788535621 | 28.33° C | 27% | 1008.6 hPa | 0 mm | - | - | - |
| 1788535321 | 27.78° C | 28% | 1008.6 hPa | 0 mm | - | - | - |
| 1788535021 | 27.22° C | 29% | 1008.5 hPa | 0 mm | - | - | - |
| 1788534721 | 27.22° C | 30% | 1008.5 hPa | 0 mm | - | - | - |
| 1788534421 | 27.22° C | 32% | 1008.5 hPa | 0 mm | - | - | - |
| 1788534121 | 26.67° C | 34% | 1008.5 hPa | 0 mm | - | - | - |
| 1788533821 | 25.56° C | 36% | 1008.4 hPa | 0 mm | - | - | - |
| 1788533521 | 25° C | 38% | 1008.4 hPa | 0 mm | - | - | - |
| 1788533221 | 23.89° C | 41% | 1008.3 hPa | 0 mm | - | - | - |
| 1788532921 | 22.78° C | 46% | 1008.3 hPa | 0 mm | - | - | - |
| 1788532621 | 21.67° C | 49% | 1008.2 hPa | 0 mm | - | - | - |
| 1788532321 | 20.56° C | 55% | 1008.2 hPa | 0 mm | - | - | - |
| 1788532021 | 20° C | 59% | 1008.1 hPa | 0 mm | - | - | - |
| 1788531721 | 19.44° C | 61% | 1008 hPa | 0 mm | - | - | - |
| 1788531421 | 18.89° C | 60% | 1007.9 hPa | 0 mm | - | - | - |
| 1788531121 | 18.89° C | 61% | 1007.7 hPa | 0 mm | - | - | - |
| 1788530821 | 18.89° C | 61% | 1007.7 hPa | 0 mm | - | - | - |
| 1788530521 | 18.89° C | 61% | 1007.6 hPa | 0 mm | - | - | - |
| 1788530221 | 18.89° C | 62% | 1007.5 hPa | 0 mm | - | - | - |
| 1788529921 | 18.89° C | 61% | 1007.5 hPa | 0 mm | - | - | - |
| 1788529621 | 18.89° C | 61% | 1007.4 hPa | 0 mm | - | - | - |
| 1788529321 | 18.89° C | 61% | 1007.4 hPa | 0 mm | - | - | - |
| 1788529021 | 18.33° C | 62% | 1007.3 hPa | 0 mm | - | - | - |
| 1788528721 | 18.33° C | 62% | 1007.3 hPa | 0 mm | - | - | - |
| 1788528421 | 18.33° C | 62% | 1007.2 hPa | 0 mm | - | - | - |
* Rain latest hour (hover to see other rain measurements)
** Current wind speed in m/s (hover to see current wind gust speed)